sensor_id;sensor_type;location;lat;lon;timestamp;pressure;altitude;pressure_sealevel;temperature;humidity
67430;BME280;54298;52.076;5.264;2023-02-16T00:00:16;102302.0;;;6.84;74.66
67430;BME280;54298;52.076;5.264;2023-02-16T00:01:53;102299.0;;;6.9;74.53
67430;BME280;54298;52.076;5.264;2023-02-16T00:03:30;102292.0;;;6.88;74.67
67430;BME280;54298;52.076;5.264;2023-02-16T00:06:58;102297.0;;;6.88;74.55
67430;BME280;54298;52.076;5.264;2023-02-16T00:08:34;102293.0;;;6.82;74.78
67430;BME280;54298;52.076;5.264;2023-02-16T00:10:11;102293.0;;;6.76;75.08
67430;BME280;54298;52.076;5.264;2023-02-16T00:14:10;102298.0;;;6.79;75.09
67430;BME280;54298;52.076;5.264;2023-02-16T00:15:47;102294.0;;;6.81;75.06
67430;BME280;54298;52.076;5.264;2023-02-16T00:19:00;102295.0;;;6.71;75.3
67430;BME280;54298;52.076;5.264;2023-02-16T00:20:37;102291.0;;;6.75;75.34
67430;BME280;54298;52.076;5.264;2023-02-16T00:22:13;102293.0;;;6.7;75.44
67430;BME280;54298;52.076;5.264;2023-02-16T00:25:26;102295.0;;;6.67;75.59
67430;BME280;54298;52.076;5.264;2023-02-16T00:27:11;102299.0;;;6.7;75.52
67430;BME280;54298;52.076;5.264;2023-02-16T00:28:50;102299.0;;;6.7;75.44
67430;BME280;54298;52.076;5.264;2023-02-16T00:30:27;102299.0;;;6.77;75.27
67430;BME280;54298;52.076;5.264;2023-02-16T00:33:41;102300.0;;;6.71;75.37
67430;BME280;54298;52.076;5.264;2023-02-16T00:35:19;102296.0;;;6.69;75.66
67430;BME280;54298;52.076;5.264;2023-02-16T00:36:58;102293.0;;;6.68;75.63
67430;BME280;54298;52.076;5.264;2023-02-16T00:40:12;102291.0;;;6.74;75.28
67430;BME280;54298;52.076;5.264;2023-02-16T00:41:50;102286.0;;;6.65;75.63
67430;BME280;54298;52.076;5.264;2023-02-16T00:43:28;102284.0;;;6.71;75.33
67430;BME280;54298;52.076;5.264;2023-02-16T00:45:13;102283.0;;;6.67;75.75
67430;BME280;54298;52.076;5.264;2023-02-16T00:48:27;102282.0;;;6.72;75.5
67430;BME280;54298;52.076;5.264;2023-02-16T00:50:09;102284.0;;;6.7;75.5
67430;BME280;54298;52.076;5.264;2023-02-16T00:51:49;102283.0;;;6.62;75.72
67430;BME280;54298;52.076;5.264;2023-02-16T00:55:04;102282.0;;;6.6;75.91
67430;BME280;54298;52.076;5.264;2023-02-16T00:56:43;102280.0;;;6.67;75.61
67430;BME280;54298;52.076;5.264;2023-02-16T00:58:23;102285.0;;;6.73;75.36
67430;BME280;54298;52.076;5.264;2023-02-16T01:00:04;102283.0;;;6.67;75.45
67430;BME280;54298;52.076;5.264;2023-02-16T01:03:26;102282.0;;;6.58;75.77
67430;BME280;54298;52.076;5.264;2023-02-16T01:05:04;102276.0;;;6.59;75.7
67430;BME280;54298;52.076;5.264;2023-02-16T01:11:14;102273.0;;;6.54;75.89
67430;BME280;54298;52.076;5.264;2023-02-16T01:12:50;102282.0;;;6.61;75.77
67430;BME280;54298;52.076;5.264;2023-02-16T01:14:26;102285.0;;;6.56;75.94
67430;BME280;54298;52.076;5.264;2023-02-16T01:17:47;102284.0;;;6.49;76.06
67430;BME280;54298;52.076;5.264;2023-02-16T01:19:24;102276.0;;;6.54;76.02
67430;BME280;54298;52.076;5.264;2023-02-16T01:21:00;102274.0;;;6.48;76.05
67430;BME280;54298;52.076;5.264;2023-02-16T01:24:13;102267.0;;;6.54;75.91
67430;BME280;54298;52.076;5.264;2023-02-16T01:25:49;102265.0;;;6.45;76.3
67430;BME280;54298;52.076;5.264;2023-02-16T01:27:25;102265.0;;;6.4;76.36
67430;BME280;54298;52.076;5.264;2023-02-16T01:29:01;102265.0;;;6.44;76.38
67430;BME280;54298;52.076;5.264;2023-02-16T01:32:15;102264.0;;;6.44;76.36
67430;BME280;54298;52.076;5.264;2023-02-16T01:33:51;102261.0;;;6.52;76.19
67430;BME280;54298;52.076;5.264;2023-02-16T01:35:30;102257.0;;;6.41;76.41
67430;BME280;54298;52.076;5.264;2023-02-16T01:38:50;102260.0;;;6.35;76.94
67430;BME280;54298;52.076;5.264;2023-02-16T01:40:36;102255.0;;;6.51;76.42
67430;BME280;54298;52.076;5.264;2023-02-16T01:42:26;102261.0;;;6.53;76.41
67430;BME280;54298;52.076;5.264;2023-02-16T01:44:10;102256.0;;;6.52;76.41
67430;BME280;54298;52.076;5.264;2023-02-16T01:45:56;102255.0;;;6.59;76.12
67430;BME280;54298;52.076;5.264;2023-02-16T01:49:18;102251.0;;;6.55;76.23
67430;BME280;54298;52.076;5.264;2023-02-16T01:51:01;102252.0;;;6.58;76.38
67430;BME280;54298;52.076;5.264;2023-02-16T01:52:42;102261.0;;;6.54;76.42
67430;BME280;54298;52.076;5.264;2023-02-16T01:54:28;102259.0;;;6.61;76.36
67430;BME280;54298;52.076;5.264;2023-02-16T01:57:59;102243.0;;;6.61;76.12
67430;BME280;54298;52.076;5.264;2023-02-16T01:59:58;102245.0;;;6.7;76.08
67430;BME280;54298;52.076;5.264;2023-02-16T02:01:40;102245.0;;;6.68;76.12
67430;BME280;54298;52.076;5.264;2023-02-16T02:05:46;102240.0;;;6.67;76.22
67430;BME280;54298;52.076;5.264;2023-02-16T02:07:26;102239.0;;;6.75;75.91
67430;BME280;54298;52.076;5.264;2023-02-16T02:09:10;102234.0;;;6.83;75.48
67430;BME280;54298;52.076;5.264;2023-02-16T02:10:59;102233.0;;;6.82;75.58
67430;BME280;54298;52.076;5.264;2023-02-16T02:14:29;102241.0;;;6.74;75.73
67430;BME280;54298;52.076;5.264;2023-02-16T02:16:09;102235.0;;;6.89;75.33
67430;BME280;54298;52.076;5.264;2023-02-16T02:17:45;102235.0;;;6.93;75.11
67430;BME280;54298;52.076;5.264;2023-02-16T02:19:22;102230.0;;;6.92;75.03
67430;BME280;54298;52.076;5.264;2023-02-16T02:25:22;102230.0;;;6.93;74.99
67430;BME280;54298;52.076;5.264;2023-02-16T02:27:18;102230.0;;;6.9;74.97
67430;BME280;54298;52.076;5.264;2023-02-16T02:29:06;102228.0;;;6.99;74.83
67430;BME280;54298;52.076;5.264;2023-02-16T02:30:53;102227.0;;;7.07;74.52
67430;BME280;54298;52.076;5.264;2023-02-16T02:32:49;102221.0;;;7.11;74.28
67430;BME280;54298;52.076;5.264;2023-02-16T02:34:37;102228.0;;;7.07;74.33
67430;BME280;54298;52.076;5.264;2023-02-16T02:36:29;102223.0;;;7.02;74.36
67430;BME280;54298;52.076;5.264;2023-02-16T02:38:11;102219.0;;;7.08;74.08
67430;BME280;54298;52.076;5.264;2023-02-16T02:42:21;102223.0;;;7.16;74.0
67430;BME280;54298;52.076;5.264;2023-02-16T02:44:04;102220.0;;;7.12;74.05
67430;BME280;54298;52.076;5.264;2023-02-16T02:45:46;102217.0;;;7.15;73.88
67430;BME280;54298;52.076;5.264;2023-02-16T02:47:36;102214.0;;;7.16;73.91
67430;BME280;54298;52.076;5.264;2023-02-16T02:49:13;102210.0;;;7.12;73.92
67430;BME280;54298;52.076;5.264;2023-02-16T02:51:54;102212.0;;;7.09;74.08
67430;BME280;54298;52.076;5.264;2023-02-16T02:53:34;102210.0;;;7.0;74.22
67430;BME280;54298;52.076;5.264;2023-02-16T03:00:47;102206.0;;;6.92;74.66
67430;BME280;54298;52.076;5.264;2023-02-16T03:02:27;102202.0;;;6.93;74.62
67430;BME280;54298;52.076;5.264;2023-02-16T03:04:07;102197.0;;;7.0;74.55
67430;BME280;54298;52.076;5.264;2023-02-16T03:05:50;102191.0;;;6.98;74.53
67430;BME280;54298;52.076;5.264;2023-02-16T03:07:47;102193.0;;;6.97;74.69
67430;BME280;54298;52.076;5.264;2023-02-16T03:09:27;102188.0;;;7.01;74.41
67430;BME280;54298;52.076;5.264;2023-02-16T03:14:41;102188.0;;;6.96;74.64
67430;BME280;54298;52.076;5.264;2023-02-16T03:16:22;102183.0;;;7.02;74.58
67430;BME280;54298;52.076;5.264;2023-02-16T03:30:32;102182.0;;;7.04;74.62
67430;BME280;54298;52.076;5.264;2023-02-16T03:33:45;102180.0;;;7.05;74.49
67430;BME280;54298;52.076;5.264;2023-02-16T03:35:22;102178.0;;;7.05;74.63
67430;BME280;54298;52.076;5.264;2023-02-16T03:37:00;102174.0;;;7.16;74.33
67430;BME280;54298;52.076;5.264;2023-02-16T03:40:32;102173.0;;;7.15;74.25
67430;BME280;54298;52.076;5.264;2023-02-16T03:42:10;102175.0;;;7.11;74.28
67430;BME280;54298;52.076;5.264;2023-02-16T03:43:47;102180.0;;;7.11;74.22
67430;BME280;54298;52.076;5.264;2023-02-16T03:45:24;102180.0;;;7.18;73.94
67430;BME280;54298;52.076;5.264;2023-02-16T03:48:36;102183.0;;;7.26;73.91
67430;BME280;54298;52.076;5.264;2023-02-16T03:50:13;102180.0;;;7.31;73.66
67430;BME280;54298;52.076;5.264;2023-02-16T03:51:49;102181.0;;;7.37;73.44
67430;BME280;54298;52.076;5.264;2023-02-16T03:53:26;102187.0;;;7.32;73.55
67430;BME280;54298;52.076;5.264;2023-02-16T03:56:38;102194.0;;;7.36;73.3
67430;BME280;54298;52.076;5.264;2023-02-16T03:58:15;102197.0;;;7.39;73.28
67430;BME280;54298;52.076;5.264;2023-02-16T03:59:58;102206.0;;;7.39;73.11
67430;BME280;54298;52.076;5.264;2023-02-16T04:03:11;102202.0;;;7.34;73.36
67430;BME280;54298;52.076;5.264;2023-02-16T04:04:47;102198.0;;;7.35;73.33
67430;BME280;54298;52.076;5.264;2023-02-16T04:06:24;102196.0;;;7.44;73.05
67430;BME280;54298;52.076;5.264;2023-02-16T04:08:01;102202.0;;;7.36;73.36
67430;BME280;54298;52.076;5.264;2023-02-16T04:12:39;102197.0;;;7.38;73.37
67430;BME280;54298;52.076;5.264;2023-02-16T04:14:14;102191.0;;;7.36;73.34
67430;BME280;54298;52.076;5.264;2023-02-16T04:15:50;102194.0;;;7.32;73.49
67430;BME280;54298;52.076;5.264;2023-02-16T04:17:26;102189.0;;;7.24;73.61
67430;BME280;54298;52.076;5.264;2023-02-16T04:19:03;102190.0;;;7.34;73.42
67430;BME280;54298;52.076;5.264;2023-02-16T04:20:39;102189.0;;;7.37;73.42
67430;BME280;54298;52.076;5.264;2023-02-16T04:23:51;102190.0;;;7.26;73.92
67430;BME280;54298;52.076;5.264;2023-02-16T04:25:27;102180.0;;;7.31;73.67
67430;BME280;54298;52.076;5.264;2023-02-16T04:27:05;102180.0;;;7.43;73.2
67430;BME280;54298;52.076;5.264;2023-02-16T04:30:18;102177.0;;;7.41;73.24
67430;BME280;54298;52.076;5.264;2023-02-16T04:31:56;102185.0;;;7.38;73.5
67430;BME280;54298;52.076;5.264;2023-02-16T04:33:32;102192.0;;;7.42;73.41
67430;BME280;54298;52.076;5.264;2023-02-16T04:36:45;102192.0;;;7.32;73.66
67430;BME280;54298;52.076;5.264;2023-02-16T04:38:21;102191.0;;;7.42;73.48
67430;BME280;54298;52.076;5.264;2023-02-16T04:39:58;102190.0;;;7.43;73.33
67430;BME280;54298;52.076;5.264;2023-02-16T04:41:34;102196.0;;;7.38;73.55
67430;BME280;54298;52.076;5.264;2023-02-16T04:44:46;102188.0;;;7.53;73.33
67430;BME280;54298;52.076;5.264;2023-02-16T04:46:23;102176.0;;;7.48;73.3
67430;BME280;54298;52.076;5.264;2023-02-16T04:47:59;102182.0;;;7.44;73.55
67430;BME280;54298;52.076;5.264;2023-02-16T04:51:12;102185.0;;;7.44;73.63
67430;BME280;54298;52.076;5.264;2023-02-16T04:52:48;102188.0;;;7.37;73.87
67430;BME280;54298;52.076;5.264;2023-02-16T04:54:24;102184.0;;;7.53;73.49
67430;BME280;54298;52.076;5.264;2023-02-16T04:57:38;102182.0;;;7.5;73.59
67430;BME280;54298;52.076;5.264;2023-02-16T04:59:15;102183.0;;;7.48;73.59
67430;BME280;54298;52.076;5.264;2023-02-16T05:00:52;102182.0;;;7.53;73.59
67430;BME280;54298;52.076;5.264;2023-02-16T05:02:28;102180.0;;;7.55;73.59
67430;BME280;54298;52.076;5.264;2023-02-16T05:05:40;102183.0;;;7.6;73.41
67430;BME280;54298;52.076;5.264;2023-02-16T05:07:16;102176.0;;;7.55;73.59
67430;BME280;54298;52.076;5.264;2023-02-16T05:08:52;102176.0;;;7.61;73.59
67430;BME280;54298;52.076;5.264;2023-02-16T05:16:15;102155.0;;;7.62;73.64
67430;BME280;54298;52.076;5.264;2023-02-16T05:17:51;102153.0;;;7.63;73.56
67430;BME280;54298;52.076;5.264;2023-02-16T05:19:27;102156.0;;;7.51;73.89
67430;BME280;54298;52.076;5.264;2023-02-16T05:23:11;102158.0;;;7.57;73.89
67430;BME280;54298;52.076;5.264;2023-02-16T05:24:48;102164.0;;;7.64;73.75
67430;BME280;54298;52.076;5.264;2023-02-16T05:26:24;102161.0;;;7.63;73.77
67430;BME280;54298;52.076;5.264;2023-02-16T05:28:02;102155.0;;;7.57;74.02
67430;BME280;54298;52.076;5.264;2023-02-16T05:29:39;102148.0;;;7.35;74.44
67430;BME280;54298;52.076;5.264;2023-02-16T05:32:51;102150.0;;;7.5;74.33
67430;BME280;54298;52.076;5.264;2023-02-16T05:34:27;102155.0;;;7.64;73.94
67430;BME280;54298;52.076;5.264;2023-02-16T05:36:05;102157.0;;;7.63;73.91
67430;BME280;54298;52.076;5.264;2023-02-16T05:39:18;102162.0;;;7.53;74.14
67430;BME280;54298;52.076;5.264;2023-02-16T05:40:54;102161.0;;;7.5;74.23
67430;BME280;54298;52.076;5.264;2023-02-16T05:42:30;102156.0;;;7.56;74.05
67430;BME280;54298;52.076;5.264;2023-02-16T05:45:44;102159.0;;;7.58;74.06
67430;BME280;54298;52.076;5.264;2023-02-16T05:47:20;102155.0;;;7.57;74.06
67430;BME280;54298;52.076;5.264;2023-02-16T05:48:57;102147.0;;;7.67;73.73
67430;BME280;54298;52.076;5.264;2023-02-16T05:50:33;102137.0;;;7.68;73.77
67430;BME280;54298;52.076;5.264;2023-02-16T05:53:45;102141.0;;;7.57;73.8
67430;BME280;54298;52.076;5.264;2023-02-16T05:55:22;102159.0;;;7.59;74.02
67430;BME280;54298;52.076;5.264;2023-02-16T05:56:58;102162.0;;;7.65;73.86
67430;BME280;54298;52.076;5.264;2023-02-16T06:00:13;102158.0;;;7.45;74.34
67430;BME280;54298;52.076;5.264;2023-02-16T06:01:50;102149.0;;;7.51;74.12
67430;BME280;54298;52.076;5.264;2023-02-16T06:03:26;102151.0;;;7.66;73.99
67430;BME280;54298;52.076;5.264;2023-02-16T06:06:38;102145.0;;;7.6;74.11
67430;BME280;54298;52.076;5.264;2023-02-16T06:08:14;102155.0;;;7.69;73.83
67430;BME280;54298;52.076;5.264;2023-02-16T06:09:50;102157.0;;;7.8;73.63
67430;BME280;54298;52.076;5.264;2023-02-16T06:11:42;102164.0;;;7.71;73.67
67430;BME280;54298;52.076;5.264;2023-02-16T06:14:59;102165.0;;;7.77;73.41
67430;BME280;54298;52.076;5.264;2023-02-16T06:16:36;102153.0;;;7.69;73.59
67430;BME280;54298;52.076;5.264;2023-02-16T06:18:14;102157.0;;;7.71;73.66
67430;BME280;54298;52.076;5.264;2023-02-16T06:19:50;102157.0;;;7.64;73.86
67430;BME280;54298;52.076;5.264;2023-02-16T06:23:05;102157.0;;;7.64;73.98
67430;BME280;54298;52.076;5.264;2023-02-16T06:24:42;102157.0;;;7.65;74.06
67430;BME280;54298;52.076;5.264;2023-02-16T06:26:18;102156.0;;;7.63;74.02
67430;BME280;54298;52.076;5.264;2023-02-16T06:29:32;102162.0;;;7.6;74.24
67430;BME280;54298;52.076;5.264;2023-02-16T06:31:08;102162.0;;;7.66;74.05
67430;BME280;54298;52.076;5.264;2023-02-16T06:32:45;102158.0;;;7.64;74.23
67430;BME280;54298;52.076;5.264;2023-02-16T06:35:59;102167.0;;;7.65;74.08
67430;BME280;54298;52.076;5.264;2023-02-16T06:37:35;102167.0;;;7.64;74.2
67430;BME280;54298;52.076;5.264;2023-02-16T06:39:11;102167.0;;;7.67;74.11
67430;BME280;54298;52.076;5.264;2023-02-16T06:40:50;102170.0;;;7.62;74.42
67430;BME280;54298;52.076;5.264;2023-02-16T06:44:05;102167.0;;;7.62;74.41
67430;BME280;54298;52.076;5.264;2023-02-16T06:45:41;102161.0;;;7.66;74.33
67430;BME280;54298;52.076;5.264;2023-02-16T06:47:18;102163.0;;;7.71;74.02
67430;BME280;54298;52.076;5.264;2023-02-16T06:50:31;102155.0;;;7.69;74.05
67430;BME280;54298;52.076;5.264;2023-02-16T06:52:07;102162.0;;;7.78;73.95
67430;BME280;54298;52.076;5.264;2023-02-16T06:53:43;102160.0;;;7.55;74.36
67430;BME280;54298;52.076;5.264;2023-02-16T06:55:20;102161.0;;;7.61;74.58
67430;BME280;54298;52.076;5.264;2023-02-16T06:58:32;102163.0;;;7.69;74.08
67430;BME280;54298;52.076;5.264;2023-02-16T07:00:08;102168.0;;;7.88;73.66
67430;BME280;54298;52.076;5.264;2023-02-16T07:01:45;102166.0;;;7.85;73.8
67430;BME280;54298;52.076;5.264;2023-02-16T07:04:57;102161.0;;;7.92;73.47
67430;BME280;54298;52.076;5.264;2023-02-16T07:06:34;102169.0;;;7.74;74.09
67430;BME280;54298;52.076;5.264;2023-02-16T07:08:10;102170.0;;;7.8;74.14
67430;BME280;54298;52.076;5.264;2023-02-16T07:11:22;102167.0;;;7.94;73.69
67430;BME280;54298;52.076;5.264;2023-02-16T07:12:58;102168.0;;;7.97;73.53
67430;BME280;54298;52.076;5.264;2023-02-16T07:14:34;102172.0;;;7.97;73.47
67430;BME280;54298;52.076;5.264;2023-02-16T07:17:48;102170.0;;;8.08;73.23
67430;BME280;54298;52.076;5.264;2023-02-16T07:19:25;102175.0;;;8.16;72.99
67430;BME280;54298;52.076;5.264;2023-02-16T07:21:03;102175.0;;;8.1;73.02
67430;BME280;54298;52.076;5.264;2023-02-16T07:22:40;102178.0;;;8.15;72.88
67430;BME280;54298;52.076;5.264;2023-02-16T07:25:52;102183.0;;;8.15;72.89
67430;BME280;54298;52.076;5.264;2023-02-16T07:27:28;102178.0;;;8.14;73.0
67430;BME280;54298;52.076;5.264;2023-02-16T07:29:05;102182.0;;;8.06;73.37
67430;BME280;54298;52.076;5.264;2023-02-16T07:32:19;102193.0;;;8.06;73.36
67430;BME280;54298;52.076;5.264;2023-02-16T07:35:32;102198.0;;;7.99;73.72
67430;BME280;54298;52.076;5.264;2023-02-16T07:38:44;102196.0;;;8.02;73.64
67430;BME280;54298;52.076;5.264;2023-02-16T07:40:22;102198.0;;;7.92;74.0
67430;BME280;54298;52.076;5.264;2023-02-16T07:41:59;102201.0;;;7.89;74.24
67430;BME280;54298;52.076;5.264;2023-02-16T07:43:35;102202.0;;;7.96;74.08
67430;BME280;54298;52.076;5.264;2023-02-16T07:46:48;102205.0;;;7.95;74.22
67430;BME280;54298;52.076;5.264;2023-02-16T07:48:24;102205.0;;;7.98;74.16
67430;BME280;54298;52.076;5.264;2023-02-16T07:50:02;102205.0;;;8.1;73.8
67430;BME280;54298;52.076;5.264;2023-02-16T07:53:16;102206.0;;;8.07;73.95
67430;BME280;54298;52.076;5.264;2023-02-16T07:54:53;102209.0;;;8.14;73.86
67430;BME280;54298;52.076;5.264;2023-02-16T07:56:31;102206.0;;;8.14;73.8
67430;BME280;54298;52.076;5.264;2023-02-16T07:58:11;102200.0;;;8.23;73.69
67430;BME280;54298;52.076;5.264;2023-02-16T08:01:26;102203.0;;;8.23;73.49
67430;BME280;54298;52.076;5.264;2023-02-16T08:03:03;102205.0;;;8.27;73.44
67430;BME280;54298;52.076;5.264;2023-02-16T08:04:41;102209.0;;;8.3;73.56
67430;BME280;54298;52.076;5.264;2023-02-16T08:07:55;102213.0;;;8.35;73.42
67430;BME280;54298;52.076;5.264;2023-02-16T08:09:31;102219.0;;;8.31;73.5
67430;BME280;54298;52.076;5.264;2023-02-16T08:11:09;102215.0;;;8.36;73.19
67430;BME280;54298;52.076;5.264;2023-02-16T08:12:49;102220.0;;;8.25;73.58
67430;BME280;54298;52.076;5.264;2023-02-16T08:16:01;102214.0;;;8.33;73.55
67430;BME280;54298;52.076;5.264;2023-02-16T08:17:37;102214.0;;;8.34;73.44
67430;BME280;54298;52.076;5.264;2023-02-16T08:19:14;102221.0;;;8.44;73.38
67430;BME280;54298;52.076;5.264;2023-02-16T08:22:26;102220.0;;;8.51;73.14
67430;BME280;54298;52.076;5.264;2023-02-16T08:24:05;102220.0;;;8.45;73.31
67430;BME280;54298;52.076;5.264;2023-02-16T08:25:43;102224.0;;;8.44;73.27
67430;BME280;54298;52.076;5.264;2023-02-16T08:28:56;102220.0;;;8.55;73.11
67430;BME280;54298;52.076;5.264;2023-02-16T08:30:34;102226.0;;;8.58;73.08
67430;BME280;54298;52.076;5.264;2023-02-16T08:32:10;102223.0;;;8.55;73.08
67430;BME280;54298;52.076;5.264;2023-02-16T08:33:48;102224.0;;;8.56;72.94
67430;BME280;54298;52.076;5.264;2023-02-16T08:37:04;102227.0;;;8.59;72.84
67430;BME280;54298;52.076;5.264;2023-02-16T08:38:42;102230.0;;;8.53;73.14
67430;BME280;54298;52.076;5.264;2023-02-16T08:40:23;102230.0;;;8.53;73.05
67430;BME280;54298;52.076;5.264;2023-02-16T08:42:00;102230.0;;;8.52;73.11
67430;BME280;54298;52.076;5.264;2023-02-16T08:45:14;102231.0;;;8.56;73.12
67430;BME280;54298;52.076;5.264;2023-02-16T08:46:52;102238.0;;;8.59;73.09
67430;BME280;54298;52.076;5.264;2023-02-16T08:48:34;102232.0;;;8.52;73.34
67430;BME280;54298;52.076;5.264;2023-02-16T08:51:49;102231.0;;;8.58;73.27
67430;BME280;54298;52.076;5.264;2023-02-16T08:53:31;102230.0;;;8.65;72.95
67430;BME280;54298;52.076;5.264;2023-02-16T08:55:08;102231.0;;;8.56;73.31
67430;BME280;54298;52.076;5.264;2023-02-16T08:56:47;102234.0;;;8.5;73.63
67430;BME280;54298;52.076;5.264;2023-02-16T09:01:06;102234.0;;;8.61;73.59
67430;BME280;54298;52.076;5.264;2023-02-16T09:02:42;102238.0;;;8.56;73.94
67430;BME280;54298;52.076;5.264;2023-02-16T09:04:19;102238.0;;;8.48;74.48
67430;BME280;54298;52.076;5.264;2023-02-16T09:06:00;102239.0;;;8.57;74.47
67430;BME280;54298;52.076;5.264;2023-02-16T09:07:36;102235.0;;;8.71;74.39
67430;BME280;54298;52.076;5.264;2023-02-16T09:09:13;102246.0;;;8.77;74.47
67430;BME280;54298;52.076;5.264;2023-02-16T09:12:26;102243.0;;;8.73;74.98
67430;BME280;54298;52.076;5.264;2023-02-16T09:15:41;102247.0;;;8.68;75.94
67430;BME280;54298;52.076;5.264;2023-02-16T09:18:55;102248.0;;;8.57;76.77
67430;BME280;54298;52.076;5.264;2023-02-16T09:20:32;102245.0;;;8.59;77.08
67430;BME280;54298;52.076;5.264;2023-02-16T09:22:08;102239.0;;;8.53;77.66
67430;BME280;54298;52.076;5.264;2023-02-16T09:25:26;102243.0;;;8.48;78.16
67430;BME280;54298;52.076;5.264;2023-02-16T09:27:03;102232.0;;;8.5;78.5
67430;BME280;54298;52.076;5.264;2023-02-16T09:28:40;102230.0;;;8.45;79.02
67430;BME280;54298;52.076;5.264;2023-02-16T09:30:16;102210.0;;;8.34;79.86
67430;BME280;54298;52.076;5.264;2023-02-16T09:33:29;102213.0;;;8.32;80.52
67430;BME280;54298;52.076;5.264;2023-02-16T09:35:06;102226.0;;;8.39;80.63
67430;BME280;54298;52.076;5.264;2023-02-16T09:36:43;102230.0;;;8.4;80.83
67430;BME280;54298;52.076;5.264;2023-02-16T09:39:56;102237.0;;;8.44;80.86
67430;BME280;54298;52.076;5.264;2023-02-16T09:41:42;102232.0;;;8.43;81.11
67430;BME280;54298;52.076;5.264;2023-02-16T09:43:42;102228.0;;;8.36;81.33
67430;BME280;54298;52.076;5.264;2023-02-16T09:45:24;102235.0;;;8.31;81.55
67430;BME280;54298;52.076;5.264;2023-02-16T09:47:05;102237.0;;;8.49;81.19
67430;BME280;54298;52.076;5.264;2023-02-16T09:50:29;102230.0;;;8.48;81.33
67430;BME280;54298;52.076;5.264;2023-02-16T09:52:12;102224.0;;;8.47;81.45
67430;BME280;54298;52.076;5.264;2023-02-16T09:54:09;102225.0;;;8.48;81.52
67430;BME280;54298;52.076;5.264;2023-02-16T09:55:58;102230.0;;;8.38;82.04
67430;BME280;54298;52.076;5.264;2023-02-16T09:57:53;102234.0;;;8.49;81.7
67430;BME280;54298;52.076;5.264;2023-02-16T09:59:42;102244.0;;;8.57;81.58
67430;BME280;54298;52.076;5.264;2023-02-16T10:03:21;102246.0;;;8.53;81.91
67430;BME280;54298;52.076;5.264;2023-02-16T10:05:19;102245.0;;;8.58;81.67
67430;BME280;54298;52.076;5.264;2023-02-16T10:07:08;102246.0;;;8.58;81.59
67430;BME280;54298;52.076;5.264;2023-02-16T10:09:03;102244.0;;;8.57;81.73
67430;BME280;54298;52.076;5.264;2023-02-16T10:10:46;102250.0;;;8.48;82.16
67430;BME280;54298;52.076;5.264;2023-02-16T10:12:32;102252.0;;;8.45;82.66
67430;BME280;54298;52.076;5.264;2023-02-16T10:14:17;102243.0;;;8.61;82.44
67430;BME280;54298;52.076;5.264;2023-02-16T10:17:45;102241.0;;;8.66;82.32
67430;BME280;54298;52.076;5.264;2023-02-16T10:19:28;102239.0;;;8.76;82.09
67430;BME280;54298;52.076;5.264;2023-02-16T10:21:12;102241.0;;;8.66;82.66
67430;BME280;54298;52.076;5.264;2023-02-16T10:22:54;102238.0;;;8.8;82.61
67430;BME280;54298;52.076;5.264;2023-02-16T10:24:43;102241.0;;;8.83;82.91
67430;BME280;54298;52.076;5.264;2023-02-16T10:28:14;102239.0;;;8.83;82.79
67430;BME280;54298;52.076;5.264;2023-02-16T10:29:52;102241.0;;;8.98;82.49
67430;BME280;54298;52.076;5.264;2023-02-16T10:31:34;102241.0;;;9.1;82.26
67430;BME280;54298;52.076;5.264;2023-02-16T10:33:15;102240.0;;;9.08;82.11
67430;BME280;54298;52.076;5.264;2023-02-16T10:37:01;102237.0;;;9.07;82.14
67430;BME280;54298;52.076;5.264;2023-02-16T10:38:51;102237.0;;;9.1;82.0
67430;BME280;54298;52.076;5.264;2023-02-16T10:40:42;102241.0;;;9.02;82.41
67430;BME280;54298;52.076;5.264;2023-02-16T10:42:28;102241.0;;;8.96;82.79
67430;BME280;54298;52.076;5.264;2023-02-16T10:44:20;102242.0;;;9.06;82.6
67430;BME280;54298;52.076;5.264;2023-02-16T10:45:59;102243.0;;;8.97;82.99
67430;BME280;54298;52.076;5.264;2023-02-16T10:47:38;102243.0;;;8.99;83.01
67430;BME280;54298;52.076;5.264;2023-02-16T10:50:56;102244.0;;;9.01;82.99
67430;BME280;54298;52.076;5.264;2023-02-16T10:52:37;102239.0;;;9.02;83.0
67430;BME280;54298;52.076;5.264;2023-02-16T10:54:20;102233.0;;;9.14;82.57
67430;BME280;54298;52.076;5.264;2023-02-16T10:56:00;102230.0;;;9.31;82.16
67430;BME280;54298;52.076;5.264;2023-02-16T10:59:17;102219.0;;;9.33;82.17
67430;BME280;54298;52.076;5.264;2023-02-16T11:01:02;102216.0;;;9.28;82.25
67430;BME280;54298;52.076;5.264;2023-02-16T11:02:44;102214.0;;;9.31;82.62
67430;BME280;54298;52.076;5.264;2023-02-16T11:04:31;102213.0;;;9.31;82.66
67430;BME280;54298;52.076;5.264;2023-02-16T11:07:57;102213.0;;;9.42;82.47
67430;BME280;54298;52.076;5.264;2023-02-16T11:09:35;102212.0;;;9.42;82.02
67430;BME280;54298;52.076;5.264;2023-02-16T11:11:12;102209.0;;;9.64;81.62
67430;BME280;54298;52.076;5.264;2023-02-16T11:12:53;102206.0;;;9.73;81.56
67430;BME280;54298;52.076;5.264;2023-02-16T11:16:11;102203.0;;;9.81;81.42
67430;BME280;54298;52.076;5.264;2023-02-16T11:17:54;102200.0;;;9.68;81.95
67430;BME280;54298;52.076;5.264;2023-02-16T11:19:33;102200.0;;;9.76;81.7
67430;BME280;54298;52.076;5.264;2023-02-16T11:21:11;102194.0;;;9.77;81.77
67430;BME280;54298;52.076;5.264;2023-02-16T11:24:26;102193.0;;;9.83;81.8
67430;BME280;54298;52.076;5.264;2023-02-16T11:26:05;102200.0;;;9.89;81.44
67430;BME280;54298;52.076;5.264;2023-02-16T11:27:59;102202.0;;;9.84;81.52
67430;BME280;54298;52.076;5.264;2023-02-16T11:29:36;102205.0;;;9.8;81.95
67430;BME280;54298;52.076;5.264;2023-02-16T11:32:52;102201.0;;;9.76;81.97
67430;BME280;54298;52.076;5.264;2023-02-16T11:34:31;102197.0;;;9.66;82.52
67430;BME280;54298;52.076;5.264;2023-02-16T11:36:19;102195.0;;;9.77;82.34
67430;BME280;54298;52.076;5.264;2023-02-16T11:38:23;102196.0;;;9.83;81.91
67430;BME280;54298;52.076;5.264;2023-02-16T11:40:05;102190.0;;;9.81;81.92
67430;BME280;54298;52.076;5.264;2023-02-16T11:43:36;102183.0;;;9.96;81.69
67430;BME280;54298;52.076;5.264;2023-02-16T11:45:23;102188.0;;;10.02;81.34
67430;BME280;54298;52.076;5.264;2023-02-16T11:47:05;102189.0;;;9.86;81.81
67430;BME280;54298;52.076;5.264;2023-02-16T11:48:42;102191.0;;;9.92;81.62
67430;BME280;54298;52.076;5.264;2023-02-16T11:50:22;102188.0;;;10.02;81.31